Time;durP1;ratioP1;P1;durP2;ratioP2;P2;SDS_P1;SDS_P2;PMS_P1;PMS_P2;Temp;Humidity;BMP_temperature;BMP_pressure;BME280_temperature;BME280_humidity;BME280_pressure;Samples;Min_cycle;Max_cycle;Signal;HPM_P1;HPM_P2
2023/05/29 00:01:34;;;;;;;17.17;2.90;;;13.20;81.10;;;;;;4993857;28;20129;-72
2023/05/29 00:03:59;;;;;;;14.05;3.10;;;13.20;81.40;;;;;;4988893;28;20103;-73
2023/05/29 00:06:25;;;;;;;16.88;2.50;;;13.20;81.60;;;;;;4987789;28;20427;-72
2023/05/29 00:08:50;;;;;;;14.65;3.42;;;13.10;81.80;;;;;;4974204;28;20498;-72
2023/05/29 00:11:16;;;;;;;19.10;2.67;;;13.00;82.20;;;;;;4987672;28;20027;-71
2023/05/29 00:13:42;;;;;;;12.27;2.50;;;13.00;82.50;;;;;;4974165;28;20061;-72
2023/05/29 00:16:09;;;;;;;18.80;3.15;;;12.90;82.30;;;;;;4974413;28;20038;-72
2023/05/29 00:18:35;;;;;;;14.98;3.10;;;12.90;82.80;;;;;;4988511;28;20030;-72
2023/05/29 00:21:01;;;;;;;18.75;2.83;;;12.80;82.70;;;;;;4974186;28;20498;-72
2023/05/29 00:23:27;;;;;;;17.17;2.83;;;12.80;82.30;;;;;;4985776;28;20034;-72
2023/05/29 00:25:53;;;;;;;12.20;2.80;;;12.80;82.60;;;;;;4992454;28;20125;-73
2023/05/29 00:28:18;;;;;;;14.50;2.10;;;12.70;82.60;;;;;;4992493;28;20027;-73
2023/05/29 00:30:44;;;;;;;15.88;2.53;;;12.70;82.60;;;;;;4976646;28;20450;-73
2023/05/29 00:33:10;;;;;;;15.57;2.95;;;12.70;82.60;;;;;;4993662;28;20113;-73
2023/05/29 00:35:35;;;;;;;13.93;2.88;;;12.60;83.00;;;;;;4993643;28;20475;-74
2023/05/29 00:38:01;;;;;;;13.57;1.88;;;12.60;83.00;;;;;;4992073;28;20117;-71
2023/05/29 00:40:27;;;;;;;15.80;3.60;;;12.50;82.90;;;;;;4992153;28;20390;-72
2023/05/29 00:42:52;;;;;;;13.38;2.53;;;12.50;83.00;;;;;;4993552;28;20026;-73
2023/05/29 00:45:18;;;;;;;18.07;2.80;;;12.50;83.10;;;;;;4992504;28;20137;-74
2023/05/29 00:47:45;;;;;;;17.05;2.67;;;12.50;83.10;;;;;;4993562;28;20031;-72
2023/05/29 00:50:13;;;;;;;16.13;2.80;;;12.40;83.60;;;;;;4993801;28;20030;-78
2023/05/29 00:52:41;;;;;;;20.38;2.70;;;12.40;83.80;;;;;;4976074;28;20418;-79
2023/05/29 00:55:07;;;;;;;11.38;2.42;;;12.40;83.50;;;;;;4993639;28;20018;-78
2023/05/29 00:57:35;;;;;;;19.40;2.77;;;12.30;83.60;;;;;;4993299;28;20023;-79
2023/05/29 01:00:05;;;;;;;16.57;2.70;;;12.30;83.50;;;;;;5008616;28;20117;-77
2023/05/29 01:02:31;;;;;;;21.55;3.15;;;12.30;83.60;;;;;;4993509;28;20085;-78
2023/05/29 01:04:57;;;;;;;10.50;1.83;;;12.30;83.50;;;;;;5008600;28;20022;-79
2023/05/29 01:07:23;;;;;;;9.50;2.03;;;12.30;83.30;;;;;;5008599;28;20084;-78
2023/05/29 01:09:49;;;;;;;9.47;1.93;;;12.20;83.30;;;;;;4993319;28;20027;-77
2023/05/29 01:12:50;;;;;;;16.80;2.80;;;12.30;83.30;;;;;;5012020;28;20046;-78
2023/05/29 01:15:31;;;;;;;17.73;2.83;;;12.20;83.30;;;;;;4996895;28;20028;-78
2023/05/29 01:18:08;;;;;;;16.07;2.53;;;12.20;83.50;;;;;;4996728;28;20031;-78
2023/05/29 01:20:41;;;;;;;17.37;2.60;;;12.20;83.60;;;;;;4996506;28;20062;-78
2023/05/29 01:23:45;;;;;;;13.93;1.85;;;12.10;83.30;;;;;;4996713;28;20471;-76
2023/05/29 01:26:43;;;;;;;15.23;2.40;;;12.10;83.20;;;;;;4996407;28;20042;-77
2023/05/29 01:29:12;;;;;;;15.40;2.40;;;12.00;83.00;;;;;;4996701;28;20030;-77
2023/05/29 01:31:39;;;;;;;11.53;2.10;;;12.00;83.10;;;;;;4996405;28;20034;-78
2023/05/29 01:34:05;;;;;;;10.07;2.13;;;12.00;82.80;;;;;;4995226;28;20026;-78
2023/05/29 01:36:32;;;;;;;12.10;2.13;;;11.90;82.80;;;;;;4996527;28;20360;-77
2023/05/29 01:38:59;;;;;;;15.97;2.87;;;11.90;82.70;;;;;;4996321;28;20471;-78
2023/05/29 01:41:26;;;;;;;14.40;2.40;;;11.90;82.70;;;;;;4995121;28;20372;-78
2023/05/29 01:43:53;;;;;;;12.17;1.90;;;11.90;83.20;;;;;;4996081;28;20076;-78
2023/05/29 01:46:20;;;;;;;10.40;1.90;;;11.90;82.90;;;;;;4995033;28;20117;-77
2023/05/29 01:48:47;;;;;;;15.27;2.17;;;11.80;83.00;;;;;;4996174;28;20054;-78
2023/05/29 01:51:13;;;;;;;17.10;2.40;;;11.80;83.10;;;;;;4995966;28;20102;-76
2023/05/29 01:53:42;;;;;;;13.67;2.30;;;11.80;83.10;;;;;;4996111;28;20030;-78
2023/05/29 01:56:09;;;;;;;15.10;1.47;;;11.80;83.20;;;;;;4995147;28;20023;-78
2023/05/29 01:58:36;;;;;;;17.60;2.90;;;11.70;83.40;;;;;;4991214;28;20030;-77
2023/05/29 02:01:03;;;;;;;14.83;2.07;;;11.70;83.60;;;;;;4995402;28;20030;-77
2023/05/29 02:03:29;;;;;;;17.77;3.33;;;11.70;83.50;;;;;;4995941;28;20027;-77
2023/05/29 02:05:59;;;;;;;19.97;2.63;;;11.60;83.70;;;;;;4995786;28;20030;-77
2023/05/29 02:08:25;;;;;;;13.37;2.10;;;11.60;83.70;;;;;;4994559;28;20032;-77
2023/05/29 02:10:50;;;;;;;16.27;2.67;;;11.50;83.70;;;;;;4995740;28;20426;-77
2023/05/29 02:13:17;;;;;;;15.10;2.50;;;11.50;84.50;;;;;;4995753;28;20497;-77
2023/05/29 02:15:42;;;;;;;12.27;2.43;;;11.50;84.80;;;;;;4995433;28;20087;-78
2023/05/29 02:18:12;;;;;;;14.13;2.10;;;11.50;85.30;;;;;;5010709;28;20030;-78
2023/05/29 02:20:38;;;;;;;10.50;2.57;;;11.40;85.50;;;;;;5010841;28;20057;-77
2023/05/29 02:23:03;;;;;;;22.37;2.47;;;11.40;85.60;;;;;;4993238;28;20033;-78
2023/05/29 02:25:29;;;;;;;14.43;2.40;;;11.40;85.80;;;;;;4995495;28;20034;-79
2023/05/29 02:27:55;;;;;;;14.93;2.30;;;11.30;85.60;;;;;;4995316;28;20177;-78
2023/05/29 02:30:20;;;;;;;13.87;2.10;;;11.30;85.80;;;;;;4995256;28;20042;-77
2023/05/29 02:32:46;;;;;;;14.17;2.03;;;11.20;86.00;;;;;;4995291;28;20054;-78
2023/05/29 02:35:14;;;;;;;15.53;2.10;;;11.20;86.10;;;;;;4994316;28;20471;-77
2023/05/29 02:37:40;;;;;;;10.57;2.00;;;11.20;86.40;;;;;;4995313;28;20077;-77
2023/05/29 02:40:09;;;;;;;14.00;2.30;;;11.20;86.30;;;;;;4994036;28;20038;-78
2023/05/29 02:42:35;;;;;;;12.40;2.10;;;11.20;86.50;;;;;;4993716;28;20035;-77
2023/05/29 02:45:00;;;;;;;11.37;2.23;;;11.10;86.60;;;;;;4993841;28;20085;-77
2023/05/29 02:47:26;;;;;;;13.77;1.83;;;11.10;86.90;;;;;;4995200;28;20038;-78
2023/05/29 02:49:51;;;;;;;19.37;2.37;;;11.10;87.60;;;;;;4995251;28;20041;-77
2023/05/29 02:52:17;;;;;;;15.53;3.83;;;11.10;87.30;;;;;;4995048;28;20061;-77
2023/05/29 02:54:43;;;;;;;17.10;2.57;;;11.00;87.40;;;;;;4994897;28;20031;-77
2023/05/29 02:57:09;;;;;;;14.53;2.27;;;11.00;87.50;;;;;;4994563;28;20034;-78
2023/05/29 02:59:35;;;;;;;15.43;2.83;;;11.00;87.90;;;;;;4995035;28;20105;-72
2023/05/29 03:02:01;;;;;;;12.83;2.27;;;10.90;87.90;;;;;;4994811;28;20050;-77
2023/05/29 03:04:27;;;;;;;17.00;2.47;;;10.90;88.20;;;;;;4994885;28;20030;-79
2023/05/29 03:06:54;;;;;;;14.53;2.50;;;10.90;88.50;;;;;;4993384;28;20446;-79
2023/05/29 03:09:19;;;;;;;14.60;2.50;;;10.90;88.40;;;;;;4993479;28;20506;-77
2023/05/29 03:11:47;;;;;;;16.93;2.00;;;10.90;88.20;;;;;;4993229;28;20042;-78
2023/05/29 03:14:13;;;;;;;14.83;2.00;;;10.80;88.30;;;;;;4994592;28;20084;-78
2023/05/29 03:16:40;;;;;;;15.27;2.47;;;10.80;88.30;;;;;;4994728;28;20065;-78
2023/05/29 03:19:07;;;;;;;12.93;2.20;;;10.80;88.50;;;;;;4994351;28;20498;-78
2023/05/29 03:21:33;;;;;;;15.07;2.20;;;10.80;88.80;;;;;;4994570;28;20034;-78
2023/05/29 03:24:00;;;;;;;15.40;2.23;;;10.80;89.10;;;;;;4994347;28;20054;-78
2023/05/29 03:26:26;;;;;;;12.93;2.90;;;10.70;89.40;;;;;;4994306;28;20133;-77
2023/05/29 03:28:52;;;;;;;16.43;2.60;;;10.70;89.30;;;;;;5009284;28;20120;-78
2023/05/29 03:31:17;;;;;;;17.53;3.60;;;10.70;89.60;;;;;;4994297;28;20096;-79
2023/05/29 03:33:43;;;;;;;19.43;3.13;;;10.70;89.90;;;;;;4994121;28;20037;-78
2023/05/29 03:36:09;;;;;;;18.57;3.37;;;10.60;90.00;;;;;;5009634;28;20027;-78
2023/05/29 03:38:34;;;;;;;21.67;3.17;;;10.60;90.20;;;;;;4988801;28;20430;-78
2023/05/29 03:41:00;;;;;;;16.00;2.97;;;10.60;90.30;;;;;;4993401;28;20026;-79
2023/05/29 03:43:25;;;;;;;17.37;3.33;;;10.60;90.30;;;;;;4992628;28;20114;-77
2023/05/29 03:45:51;;;;;;;18.17;2.20;;;10.50;90.30;;;;;;4992806;28;20039;-78
2023/05/29 03:48:17;;;;;;;14.30;2.40;;;10.50;90.10;;;;;;5009327;28;20027;-79
2023/05/29 03:50:42;;;;;;;13.27;2.50;;;10.50;90.30;;;;;;4994028;28;20031;-79
2023/05/29 03:53:08;;;;;;;14.70;2.87;;;10.50;90.60;;;;;;4993201;28;20034;-78
2023/05/29 03:55:34;;;;;;;21.07;3.30;;;10.50;90.70;;;;;;5009160;28;20472;-78
2023/05/29 03:58:00;;;;;;;14.93;2.47;;;10.50;90.70;;;;;;4993662;28;20076;-78
2023/05/29 04:00:25;;;;;;;14.97;2.10;;;10.50;90.60;;;;;;4992779;28;20117;-77
2023/05/29 04:02:51;;;;;;;15.13;2.60;;;10.50;90.50;;;;;;4993921;28;20120;-77
2023/05/29 04:05:17;;;;;;;12.67;2.97;;;10.50;90.50;;;;;;4992712;28;20121;-78
2023/05/29 04:07:42;;;;;;;15.23;1.97;;;10.60;90.50;;;;;;4994047;28;20030;-79
2023/05/29 04:10:09;;;;;;;14.57;1.93;;;10.60;90.50;;;;;;4993797;28;20038;-77
2023/05/29 04:12:35;;;;;;;15.33;3.00;;;10.60;90.60;;;;;;5008643;28;20032;-78
2023/05/29 04:15:00;;;;;;;17.90;2.50;;;10.60;90.60;;;;;;4993839;28;20022;-78
2023/05/29 04:17:26;;;;;;;16.27;2.93;;;10.60;90.60;;;;;;4993626;28;20529;-77
2023/05/29 04:19:52;;;;;;;14.23;2.33;;;10.80;90.70;;;;;;5009074;28;20045;-81
2023/05/29 04:22:17;;;;;;;18.37;2.77;;;10.60;90.90;;;;;;4993780;28;20434;-79
2023/05/29 04:24:43;;;;;;;17.27;2.63;;;10.70;90.70;;;;;;4993715;28;20030;-79
2023/05/29 04:27:12;;;;;;;15.80;2.60;;;10.70;90.60;;;;;;4992228;28;20117;-79
2023/05/29 04:29:40;;;;;;;17.67;2.40;;;10.70;90.60;;;;;;4993942;28;20389;-79
2023/05/29 04:32:08;;;;;;;14.63;2.40;;;10.70;90.50;;;;;;5010201;28;20346;-78
2023/05/29 04:34:34;;;;;;;13.23;2.53;;;10.80;90.50;;;;;;5028403;28;20033;-79
2023/05/29 04:36:59;;;;;;;13.23;2.67;;;10.80;90.50;;;;;;5011963;28;20053;-78
2023/05/29 04:39:25;;;;;;;15.73;2.87;;;10.80;90.40;;;;;;5028635;28;20054;-79
2023/05/29 04:41:51;;;;;;;16.43;2.03;;;10.80;90.30;;;;;;5008851;28;20026;-79
2023/05/29 04:44:17;;;;;;;18.27;3.30;;;10.80;90.30;;;;;;4992225;28;20034;-79
2023/05/29 04:46:44;;;;;;;15.10;2.10;;;10.80;90.30;;;;;;4994942;28;20371;-77
2023/05/29 04:49:12;;;;;;;18.70;2.53;;;10.80;90.30;;;;;;4996116;28;20037;-78
2023/05/29 04:51:41;;;;;;;17.17;2.23;;;10.80;90.30;;;;;;4995859;28;20037;-79
2023/05/29 04:54:09;;;;;;;11.33;2.17;;;10.80;90.30;;;;;;4997234;28;20030;-78
2023/05/29 04:56:34;;;;;;;12.20;2.30;;;10.80;90.20;;;;;;4996919;28;20062;-77
2023/05/29 04:59:00;;;;;;;16.70;2.30;;;10.80;90.20;;;;;;4995880;28;20081;-72
2023/05/29 05:01:26;;;;;;;15.13;2.43;;;10.80;90.20;;;;;;4997090;28;20036;-73
2023/05/29 05:03:57;;;;;;;21.33;2.77;;;10.90;90.20;;;;;;4996883;28;20030;-73
2023/05/29 05:06:25;;;;;;;16.73;2.70;;;10.80;90.20;;;;;;4997005;28;20033;-72
2023/05/29 05:08:51;;;;;;;18.37;2.43;;;10.80;90.20;;;;;;4995755;28;20569;-73
2023/05/29 05:11:18;;;;;;;16.90;2.83;;;10.90;90.30;;;;;;4970211;28;20045;-73
2023/05/29 05:13:44;;;;;;;13.77;2.20;;;10.90;90.30;;;;;;4995739;28;20034;-73
2023/05/29 05:16:09;;;;;;;16.13;2.80;;;10.90;90.30;;;;;;4996576;28;20383;-73
2023/05/29 05:18:36;;;;;;;16.73;2.70;;;10.90;90.40;;;;;;5011897;28;20033;-73
2023/05/29 05:21:03;;;;;;;13.93;2.10;;;10.90;90.30;;;;;;4996752;28;20061;-78
2023/05/29 05:23:29;;;;;;;18.97;2.30;;;10.90;90.20;;;;;;4996826;28;20049;-79
2023/05/29 05:25:56;;;;;;;16.10;3.23;;;10.90;90.20;;;;;;4996245;28;20054;-79
2023/05/29 05:28:22;;;;;;;18.90;2.40;;;11.00;90.20;;;;;;4995310;28;20058;-79
2023/05/29 05:30:48;;;;;;;19.03;2.60;;;10.90;90.20;;;;;;4996603;28;20045;-79
2023/05/29 05:33:13;;;;;;;22.20;3.03;;;11.00;90.10;;;;;;4996472;28;20379;-78
2023/05/29 05:35:39;;;;;;;13.60;2.17;;;11.00;90.10;;;;;;4988858;28;20015;-79
2023/05/29 05:38:06;;;;;;;13.27;2.63;;;11.00;90.10;;;;;;4991431;28;20109;-78
2023/05/29 05:40:32;;;;;;;19.47;2.13;;;11.00;90.40;;;;;;4995509;28;20022;-80
2023/05/29 05:42:57;;;;;;;14.37;2.60;;;11.10;89.90;;;;;;4995762;28;20436;-79
2023/05/29 05:45:23;;;;;;;13.80;1.70;;;11.10;89.90;;;;;;4994129;28;20038;-78
2023/05/29 05:47:49;;;;;;;16.63;3.17;;;11.10;90.00;;;;;;4977250;28;20035;-79
2023/05/29 05:50:15;;;;;;;16.83;2.60;;;11.20;89.50;;;;;;4974746;28;20539;-79
2023/05/29 05:52:40;;;;;;;11.40;2.43;;;11.20;89.40;;;;;;4980474;28;20034;-79
2023/05/29 05:55:07;;;;;;;12.10;2.13;;;11.20;89.00;;;;;;4993753;28;20070;-80
2023/05/29 05:57:33;;;;;;;17.45;1.92;;;11.30;88.80;;;;;;4994279;28;20027;-78
2023/05/29 06:00:00;;;;;;;19.40;3.13;;;11.30;88.70;;;;;;4987109;28;20042;-78
2023/05/29 06:02:25;;;;;;;17.20;2.60;;;11.40;88.80;;;;;;4993705;28;20145;-80
2023/05/29 06:04:51;;;;;;;18.27;2.27;;;11.40;88.60;;;;;;4977469;28;20112;-80
2023/05/29 06:07:17;;;;;;;10.40;1.87;;;11.40;88.30;;;;;;4994478;28;20458;-79
2023/05/29 06:09:43;;;;;;;17.10;2.33;;;11.50;88.20;;;;;;4994416;28;20113;-78
2023/05/29 06:12:09;;;;;;;15.03;1.87;;;11.50;88.00;;;;;;4994893;28;20030;-79
2023/05/29 06:14:35;;;;;;;8.97;1.67;;;11.50;87.80;;;;;;4994541;28;20394;-79
2023/05/29 06:17:01;;;;;;;16.37;2.20;;;11.60;87.80;;;;;;5011125;28;20085;-77
2023/05/29 06:19:27;;;;;;;9.57;2.00;;;11.70;87.60;;;;;;4995663;28;20029;-79
2023/05/29 06:21:52;;;;;;;15.52;2.78;;;11.70;86.90;;;;;;4994462;28;20031;-79
2023/05/29 06:24:18;;;;;;;14.67;1.83;;;11.70;86.80;;;;;;4995367;28;20042;-79
2023/05/29 06:26:44;;;;;;;16.02;2.05;;;11.80;86.70;;;;;;4995391;28;20513;-80
2023/05/29 06:29:10;;;;;;;16.20;1.85;;;11.80;86.80;;;;;;4994331;28;20394;-82
2023/05/29 06:31:35;;;;;;;12.40;1.73;;;11.80;86.80;;;;;;4995338;28;20114;-80
2023/05/29 06:34:01;;;;;;;10.65;1.77;;;11.90;86.70;;;;;;4994183;28;20114;-79
2023/05/29 06:36:26;;;;;;;14.10;1.67;;;11.90;86.40;;;;;;4994117;28;20537;-81
2023/05/29 06:38:52;;;;;;;19.83;2.42;;;12.00;86.00;;;;;;4995001;28;20037;-78
2023/05/29 06:41:18;;;;;;;10.25;1.70;;;12.00;85.90;;;;;;4994046;28;20038;-79
2023/05/29 06:43:44;;;;;;;15.18;2.05;;;12.10;85.70;;;;;;4995055;28;20035;-79
2023/05/29 06:46:10;;;;;;;12.25;2.13;;;12.20;85.50;;;;;;4994848;28;20018;-79
2023/05/29 06:48:36;;;;;;;18.45;2.60;;;12.20;85.30;;;;;;4993945;28;20038;-79
2023/05/29 06:51:08;;;;;;;14.10;2.00;;;12.30;85.10;;;;;;4993588;28;20037;-78
2023/05/29 06:53:38;;;;;;;14.60;1.90;;;12.30;84.90;;;;;;4991895;28;20043;-79
2023/05/29 06:56:05;;;;;;;9.93;2.45;;;12.40;84.60;;;;;;4983981;28;20064;-79
2023/05/29 06:58:31;;;;;;;11.82;1.23;;;12.40;84.40;;;;;;4996840;28;20036;-78
2023/05/29 07:00:57;;;;;;;10.15;1.83;;;12.50;84.40;;;;;;5013213;28;20610;-79
2023/05/29 07:03:23;;;;;;;13.15;1.80;;;12.50;83.70;;;;;;5014933;28;20036;-80
2023/05/29 07:05:49;;;;;;;13.07;2.42;;;12.60;83.50;;;;;;5014552;28;20041;-79
2023/05/29 07:08:15;;;;;;;11.32;1.70;;;12.60;82.70;;;;;;5013748;28;20030;-78
2023/05/29 07:10:40;;;;;;;14.02;2.58;;;12.70;82.10;;;;;;5014185;28;20405;-79
2023/05/29 07:13:06;;;;;;;11.60;1.77;;;12.70;81.50;;;;;;5013045;28;20116;-77
2023/05/29 07:15:32;;;;;;;14.98;2.63;;;12.70;81.70;;;;;;5000033;28;20109;-78
2023/05/29 07:17:57;;;;;;;12.25;1.88;;;12.80;81.00;;;;;;4994655;28;20034;-77
2023/05/29 07:20:23;;;;;;;8.40;1.40;;;12.80;80.50;;;;;;4994942;28;20545;-79
2023/05/29 07:22:49;;;;;;;14.25;1.95;;;12.90;80.10;;;;;;4977204;28;20030;-76
2023/05/29 07:25:15;;;;;;;10.68;1.85;;;12.90;79.20;;;;;;4994546;28;20034;-78
2023/05/29 07:27:40;;;;;;;11.50;1.58;;;13.00;78.80;;;;;;4994297;28;20411;-77
2023/05/29 07:30:07;;;;;;;10.73;1.83;;;13.00;78.20;;;;;;4994370;28;20050;-79
2023/05/29 07:32:33;;;;;;;13.23;2.08;;;13.10;77.70;;;;;;4994416;28;20472;-78
2023/05/29 07:34:58;;;;;;;11.77;2.20;;;13.10;77.20;;;;;;4994283;28;20030;-79
2023/05/29 07:37:24;;;;;;;9.23;1.77;;;13.20;77.80;;;;;;4992536;28;20112;-79
2023/05/29 07:39:49;;;;;;;11.68;1.40;;;13.20;77.40;;;;;;4994111;28;20105;-79
2023/05/29 07:42:15;;;;;;;11.63;1.80;;;13.30;77.80;;;;;;5008786;28;20048;-72
2023/05/29 07:44:42;;;;;;;10.20;1.48;;;13.30;77.30;;;;;;5002197;28;20097;-72
2023/05/29 07:47:09;;;;;;;13.05;1.75;;;13.40;76.50;;;;;;4982074;28;20041;-72
2023/05/29 07:49:35;;;;;;;8.57;1.50;;;13.40;76.00;;;;;;4984644;28;20474;-72
2023/05/29 07:52:04;;;;;;;8.35;1.70;;;13.40;76.00;;;;;;4994912;28;20038;-73
2023/05/29 07:54:32;;;;;;;9.63;1.65;;;13.50;75.90;;;;;;4973485;28;20054;-73
2023/05/29 07:56:59;;;;;;;10.07;1.52;;;13.60;76.20;;;;;;4987060;28;20065;-72
2023/05/29 07:59:25;;;;;;;9.93;2.08;;;13.60;76.20;;;;;;4993851;28;20030;-73
2023/05/29 08:01:51;;;;;;;9.05;1.70;;;13.70;76.20;;;;;;4993778;28;20031;-73
2023/05/29 08:04:17;;;;;;;10.48;1.30;;;13.80;76.60;;;;;;4987453;28;20041;-73
2023/05/29 08:06:43;;;;;;;9.15;2.28;;;13.90;76.70;;;;;;4975976;28;20126;-72
2023/05/29 08:09:10;;;;;;;13.80;2.10;;;14.00;76.00;;;;;;4974900;28;20345;-71
2023/05/29 08:11:36;;;;;;;12.30;1.65;;;14.00;75.30;;;;;;4973302;28;20427;-72
2023/05/29 08:14:02;;;;;;;10.38;1.23;;;14.10;75.00;;;;;;4991371;28;20058;-72
2023/05/29 08:16:28;;;;;;;11.88;1.85;;;14.20;74.50;;;;;;4994073;28;20034;-72
2023/05/29 08:18:54;;;;;;;10.18;1.23;;;14.30;74.20;;;;;;4994158;28;20027;-73
2023/05/29 08:21:20;;;;;;;12.63;1.35;;;14.30;74.20;;;;;;4997005;28;20117;-73
2023/05/29 08:23:45;;;;;;;13.50;1.67;;;14.40;74.30;;;;;;4996843;28;20042;-73
2023/05/29 08:26:12;;;;;;;14.32;1.65;;;14.50;73.90;;;;;;4997839;28;20734;-73
2023/05/29 08:28:38;;;;;;;9.20;1.42;;;14.50;73.70;;;;;;5003498;28;20042;-73
2023/05/29 08:31:03;;;;;;;9.60;1.40;;;14.60;73.60;;;;;;5032466;28;20034;-71
2023/05/29 08:33:30;;;;;;;10.18;1.75;;;14.70;73.00;;;;;;5002432;28;20030;-78
2023/05/29 08:35:58;;;;;;;10.05;1.60;;;14.70;72.90;;;;;;4998137;28;20398;-77
2023/05/29 08:38:25;;;;;;;6.47;1.38;;;14.80;72.50;;;;;;4997668;28;20032;-77
2023/05/29 08:40:51;;;;;;;10.10;1.80;;;14.80;71.90;;;;;;4997376;28;20034;-77
2023/05/29 08:43:21;;;;;;;11.10;1.63;;;14.90;71.10;;;;;;4997421;28;20042;-77
2023/05/29 08:45:52;;;;;;;13.45;1.98;;;15.00;70.80;;;;;;4996040;28;20545;-79
2023/05/29 08:48:22;;;;;;;8.95;1.83;;;15.00;70.70;;;;;;4997411;28;20035;-78
2023/05/29 08:50:48;;;;;;;9.45;1.77;;;15.10;70.70;;;;;;4996271;28;20459;-78
2023/05/29 08:53:15;;;;;;;11.88;2.08;;;15.20;70.40;;;;;;4995652;28;20494;-78
2023/05/29 08:55:41;;;;;;;10.73;1.30;;;15.30;70.40;;;;;;4997282;28;20022;-77
2023/05/29 08:58:08;;;;;;;6.88;1.65;;;15.40;70.20;;;;;;4997088;28;20051;-78
2023/05/29 09:00:34;;;;;;;7.65;1.48;;;15.50;70.30;;;;;;4997058;28;20511;-77
2023/05/29 09:02:59;;;;;;;7.80;1.35;;;15.60;69.60;;;;;;4997142;28;20034;-77
2023/05/29 09:05:29;;;;;;;11.43;1.60;;;15.70;69.20;;;;;;4996042;28;20069;-79
2023/05/29 09:07:55;;;;;;;9.05;1.40;;;15.80;69.10;;;;;;4997520;28;20121;-79
2023/05/29 09:10:22;;;;;;;9.10;1.70;;;15.90;68.70;;;;;;4997243;28;20172;-78
2023/05/29 09:12:50;;;;;;;8.27;1.38;;;16.00;68.90;;;;;;4995505;28;20031;-79
2023/05/29 09:15:23;;;;;;;8.95;2.05;;;16.10;68.70;;;;;;4996759;28;20414;-78
2023/05/29 09:17:57;;;;;;;10.95;1.65;;;16.20;68.60;;;;;;4995512;28;20035;-79
2023/05/29 09:20:24;;;;;;;12.00;1.95;;;16.40;68.50;;;;;;4995461;28;20113;-78
2023/05/29 09:23:00;;;;;;;9.32;1.50;;;16.50;68.20;;;;;;4996727;28;20049;-78
2023/05/29 09:25:29;;;;;;;6.05;1.45;;;16.60;67.70;;;;;;4997055;28;20092;-78
2023/05/29 09:27:58;;;;;;;8.18;1.40;;;16.70;67.70;;;;;;4996832;28;20069;-78
2023/05/29 09:30:34;;;;;;;9.18;1.63;;;16.80;67.70;;;;;;4996554;28;20034;-79
2023/05/29 09:33:00;;;;;;;10.60;2.10;;;16.90;67.50;;;;;;4996207;28;20538;-79
2023/05/29 09:35:36;;;;;;;8.93;1.60;;;17.10;67.30;;;;;;4996730;28;20037;-78
2023/05/29 09:38:02;;;;;;;7.60;2.08;;;17.20;67.00;;;;;;4995127;28;20050;-79
2023/05/29 09:40:36;;;;;;;6.45;1.75;;;17.20;66.00;;;;;;4995587;28;20038;-79
2023/05/29 09:43:04;;;;;;;7.78;1.23;;;17.30;65.30;;;;;;4996367;28;20614;-80
2023/05/29 09:45:30;;;;;;;6.65;1.30;;;17.40;65.00;;;;;;4995200;28;20089;-79
2023/05/29 09:47:56;;;;;;;7.68;1.63;;;17.40;64.60;;;;;;4996289;28;20026;-80
2023/05/29 09:50:25;;;;;;;9.82;1.48;;;17.50;64.10;;;;;;4994890;28;20385;-78
2023/05/29 09:52:53;;;;;;;11.60;1.60;;;17.50;63.70;;;;;;4995951;28;20097;-78
2023/05/29 09:55:23;;;;;;;7.22;1.27;;;17.60;63.40;;;;;;4996484;28;20443;-79
2023/05/29 09:57:49;;;;;;;6.88;1.48;;;17.70;63.40;;;;;;5010880;28;20093;-80
2023/05/29 10:00:17;;;;;;;8.93;2.00;;;17.80;63.60;;;;;;5011256;28;20422;-77
2023/05/29 10:02:43;;;;;;;7.90;2.10;;;17.90;63.40;;;;;;4995822;28;20579;-78
2023/05/29 10:05:11;;;;;;;7.30;1.60;;;17.90;62.90;;;;;;4995674;28;20054;-78
2023/05/29 10:07:38;;;;;;;6.75;1.27;;;18.00;62.60;;;;;;4994849;28;20034;-78
2023/05/29 10:10:07;;;;;;;8.02;1.58;;;18.10;62.40;;;;;;4994962;28;20033;-78
2023/05/29 10:12:36;;;;;;;8.18;1.88;;;18.10;62.00;;;;;;5005490;28;20066;-78
2023/05/29 10:15:11;;;;;;;8.27;1.40;;;18.30;61.90;;;;;;4980022;28;20033;-72
2023/05/29 10:17:38;;;;;;;7.80;1.75;;;18.30;62.30;;;;;;4981194;28;20511;-72
2023/05/29 10:20:09;;;;;;;8.85;1.55;;;18.50;61.40;;;;;;4998320;28;20105;-73
2023/05/29 10:22:40;;;;;;;8.15;1.52;;;18.60;60.60;;;;;;4987483;28;20038;-73
2023/05/29 10:25:09;;;;;;;4.53;0.98;;;18.70;60.90;;;;;;4989768;28;20483;-72
2023/05/29 10:27:36;;;;;;;6.72;0.95;;;18.90;59.80;;;;;;4995504;28;20537;-73
2023/05/29 10:30:25;;;;;;;7.03;1.30;;;19.00;59.10;;;;;;4994045;28;20040;-72
2023/05/29 10:33:18;;;;;;;8.68;1.30;;;19.20;59.00;;;;;;4995356;28;20030;-72
2023/05/29 10:35:53;;;;;;;10.25;1.50;;;19.40;58.20;;;;;;4983040;28;20085;-72
2023/05/29 10:38:20;;;;;;;7.53;1.52;;;19.60;57.50;;;;;;4981827;28;20660;-72
2023/05/29 10:40:46;;;;;;;7.00;1.23;;;19.80;57.20;;;;;;4981525;28;20034;-72
2023/05/29 10:43:33;;;;;;;8.48;1.42;;;20.10;56.40;;;;;;4979104;28;20039;-73
2023/05/29 10:46:02;;;;;;;5.88;1.27;;;20.40;55.90;;;;;;4986261;28;20463;-73
2023/05/29 10:48:30;;;;;;;8.98;1.50;;;20.60;55.80;;;;;;4987964;28;20049;-73
2023/05/29 10:50:56;;;;;;;10.07;1.33;;;20.80;55.40;;;;;;4995371;28;20044;-71
2023/05/29 10:53:30;;;;;;;7.40;1.58;;;21.10;55.30;;;;;;4987277;28;20026;-73
2023/05/29 10:55:56;;;;;;;7.07;1.27;;;21.30;53.90;;;;;;4985216;28;20069;-72
2023/05/29 10:58:24;;;;;;;9.02;1.60;;;21.60;54.00;;;;;;4983647;28;20015;-72
2023/05/29 11:00:50;;;;;;;5.32;1.05;;;21.90;53.40;;;;;;4995145;28;20026;-72
2023/05/29 11:03:37;;;;;;;9.20;1.00;;;22.10;53.10;;;;;;4994650;28;20122;-72
2023/05/29 11:06:13;;;;;;;4.78;1.20;;;22.30;52.60;;;;;;4994642;28;20498;-73
2023/05/29 11:08:56;;;;;;;7.97;1.27;;;22.60;53.00;;;;;;4975439;28;20027;-73
2023/05/29 11:11:27;;;;;;;7.93;1.88;;;22.80;51.90;;;;;;4990066;28;20037;-73
2023/05/29 11:13:55;;;;;;;6.35;1.30;;;23.00;51.50;;;;;;4976511;28;20031;-72
2023/05/29 11:16:29;;;;;;;5.15;1.05;;;23.30;51.70;;;;;;4991912;28;20096;-73
2023/05/29 11:19:03;;;;;;;7.80;1.33;;;23.50;51.30;;;;;;4994201;28;20490;-69
2023/05/29 11:21:41;;;;;;;;;;;23.90;50.60;;;;;;4980539;28;20039;-72
2023/05/29 11:24:06;;;;;;;9.43;1.75;;;24.10;49.20;;;;;;4980810;28;19914;-72
2023/05/29 11:26:33;;;;;;;8.68;1.63;;;24.30;49.00;;;;;;4986728;28;20069;-72
2023/05/29 11:29:05;;;;;;;14.02;3.03;;;24.60;48.20;;;;;;4977481;28;20491;-73
2023/05/29 11:31:34;;;;;;;10.85;1.90;;;24.90;47.40;;;;;;4975131;28;20476;-73
2023/05/29 11:34:02;;;;;;;9.25;2.00;;;25.20;46.80;;;;;;4974973;28;20025;-73
2023/05/29 11:36:28;;;;;;;7.82;1.67;;;25.50;46.80;;;;;;4976125;28;20035;-75
2023/05/29 11:38:54;;;;;;;7.32;2.05;;;25.90;46.50;;;;;;4993436;28;20395;-72
2023/05/29 11:41:20;;;;;;;9.18;1.50;;;26.20;46.00;;;;;;4994174;28;20030;-73
2023/05/29 11:44:01;;;;;;;9.52;1.85;;;26.40;44.80;;;;;;4994331;28;20042;-72
2023/05/29 11:46:28;;;;;;;8.30;1.20;;;26.60;43.80;;;;;;4993791;28;20061;-73
2023/05/29 11:48:53;;;;;;;8.13;2.00;;;26.60;43.20;;;;;;4991153;28;20039;-75
2023/05/29 11:51:20;;;;;;;7.28;1.52;;;26.40;42.80;;;;;;4993749;28;20043;-73
2023/05/29 11:53:47;;;;;;;7.10;1.60;;;26.40;42.80;;;;;;4992303;28;20022;-73
2023/05/29 11:56:13;;;;;;;11.23;2.10;;;26.30;42.10;;;;;;4993832;28;20030;-73
2023/05/29 11:58:40;;;;;;;7.88;1.63;;;26.30;41.70;;;;;;4993844;28;20390;-74
2023/05/29 12:01:07;;;;;;;7.80;1.83;;;26.30;41.90;;;;;;4994113;28;20049;-75
2023/05/29 12:03:43;;;;;;;8.68;1.67;;;26.30;42.10;;;;;;4993199;28;20026;-74
2023/05/29 12:06:11;;;;;;;9.63;2.00;;;26.30;42.10;;;;;;4994089;28;20397;-75
2023/05/29 12:08:38;;;;;;;8.38;1.95;;;26.30;41.80;;;;;;4977015;28;20089;-75
2023/05/29 12:11:04;;;;;;;4.40;1.35;;;26.20;42.20;;;;;;4994093;28;20434;-75
2023/05/29 12:13:30;;;;;;;5.63;1.58;;;26.20;42.60;;;;;;4993066;28;20018;-76
2023/05/29 12:16:02;;;;;;;4.55;1.15;;;26.10;43.30;;;;;;4992051;28;20034;-74
2023/05/29 12:18:28;;;;;;;5.20;1.38;;;25.90;42.70;;;;;;4986745;28;20027;-74
2023/05/29 12:20:59;;;;;;;7.50;1.40;;;25.80;42.70;;;;;;4984552;28;20033;-75
2023/05/29 12:23:24;;;;;;;7.43;1.60;;;25.70;42.50;;;;;;4990069;28;20026;-74
2023/05/29 12:25:53;;;;;;;7.32;1.48;;;25.60;42.70;;;;;;4993953;28;20089;-74
2023/05/29 12:28:20;;;;;;;7.22;1.67;;;25.50;43.10;;;;;;4992984;28;20473;-75
2023/05/29 12:30:49;;;;;;;7.05;1.40;;;25.40;43.90;;;;;;4993708;28;20023;-75
2023/05/29 12:33:32;;;;;;;11.98;1.90;;;25.40;43.20;;;;;;4993814;28;20022;-74
2023/05/29 12:36:09;;;;;;;9.13;1.50;;;25.50;43.00;;;;;;4993811;28;20065;-73
2023/05/29 12:38:51;;;;;;;6.82;2.00;;;25.50;43.00;;;;;;4992969;28;20047;-73
2023/05/29 12:41:23;;;;;;;6.65;1.35;;;25.60;42.90;;;;;;4994346;28;20058;-75
2023/05/29 12:43:49;;;;;;;7.32;1.27;;;25.60;42.80;;;;;;4993005;28;20447;-75